createdAt,value
2023-04-03T00:01:21.598Z,0.95
2023-04-03T00:03:48.553Z,1.10
2023-04-03T00:06:16.082Z,1.00
2023-04-03T00:08:43.375Z,0.90
2023-04-03T00:11:11.122Z,0.93
2023-04-03T00:13:39.698Z,1.10
2023-04-03T00:16:08.846Z,0.95
2023-04-03T00:18:37.976Z,0.98
2023-04-03T00:21:06.427Z,1.23
2023-04-03T00:23:34.107Z,0.90
2023-04-03T00:26:01.264Z,1.00
2023-04-03T00:28:28.207Z,0.80
2023-04-03T00:30:55.211Z,0.98
2023-04-03T00:33:22.780Z,0.95
2023-04-03T00:35:50.680Z,1.10
2023-04-03T00:38:18.068Z,1.00
2023-04-03T00:40:48.672Z,1.00
2023-04-03T00:43:25.965Z,0.95
2023-04-03T00:45:56.193Z,1.00
2023-04-03T00:48:46.860Z,1.13
2023-04-03T00:51:27.402Z,0.90
2023-04-03T00:54:02.232Z,1.00
2023-04-03T00:56:30.786Z,0.90
2023-04-03T00:59:14.330Z,0.90
2023-04-03T01:01:41.462Z,1.10
2023-04-03T01:04:37.602Z,0.90
2023-04-03T01:07:29.912Z,1.27
2023-04-03T01:10:01.085Z,0.85
2023-04-03T01:15:11.810Z,0.85
2023-04-03T01:17:41.805Z,0.88
2023-04-03T01:20:36.930Z,0.77
2023-04-03T01:23:23.405Z,0.90
2023-04-03T01:25:56.669Z,0.70
2023-04-03T01:28:31.327Z,1.10
2023-04-03T01:31:38.555Z,0.60
2023-04-03T01:34:05.640Z,0.90
2023-04-03T01:36:33.538Z,1.00
2023-04-03T01:39:01.361Z,1.05
2023-04-03T01:41:29.587Z,1.00
2023-04-03T01:44:04.730Z,1.08
2023-04-03T01:46:32.022Z,0.85
2023-04-03T01:48:59.240Z,1.15
2023-04-03T01:51:26.264Z,0.90
2023-04-03T01:53:53.239Z,1.00
2023-04-03T01:56:21.083Z,1.05
2023-04-03T01:58:48.567Z,1.00
2023-04-03T02:01:16.084Z,1.00
2023-04-03T02:03:43.184Z,0.88
2023-04-03T02:06:12.593Z,1.00
2023-04-03T02:08:39.892Z,0.85
2023-04-03T02:11:07.077Z,0.80
2023-04-03T02:13:34.196Z,1.02
2023-04-03T02:16:08.912Z,0.93
2023-04-03T02:18:35.904Z,1.00
2023-04-03T02:21:02.825Z,0.82
2023-04-03T02:23:29.781Z,1.00
2023-04-03T02:26:13.084Z,0.90
2023-04-03T02:28:41.999Z,0.80
2023-04-03T02:31:11.018Z,0.93
2023-04-03T02:33:39.753Z,0.82
2023-04-03T02:36:10.466Z,0.75
2023-04-03T02:38:40.085Z,0.70
2023-04-03T02:41:10.700Z,0.80
2023-04-03T02:43:38.900Z,0.73
2023-04-03T02:46:07.498Z,0.90
2023-04-03T02:48:34.684Z,0.95
2023-04-03T02:51:02.042Z,0.93
2023-04-03T02:53:29.192Z,1.08
2023-04-03T02:55:56.317Z,1.02
2023-04-03T02:58:23.263Z,0.90
2023-04-03T03:00:51.001Z,0.80
2023-04-03T03:03:18.033Z,1.10
2023-04-03T03:05:45.004Z,1.20
2023-04-03T03:08:12.491Z,0.90
2023-04-03T03:10:39.734Z,0.90
2023-04-03T03:13:08.019Z,0.85
2023-04-03T03:15:34.956Z,0.90
2023-04-03T03:18:04.067Z,1.15
2023-04-03T03:20:31.043Z,0.90
2023-04-03T03:22:59.071Z,1.00
2023-04-03T03:25:26.042Z,1.00
2023-04-03T03:27:53.016Z,0.70
2023-04-03T03:30:20.036Z,1.00
2023-04-03T03:32:47.982Z,0.82
2023-04-03T03:35:15.273Z,0.82
2023-04-03T03:37:42.276Z,1.00
2023-04-03T03:40:10.302Z,1.00
2023-04-03T03:42:38.264Z,0.80
2023-04-03T03:45:06.196Z,0.90
2023-04-03T03:47:33.219Z,1.17
2023-04-03T03:50:00.301Z,1.00
2023-04-03T03:52:27.340Z,0.90
2023-04-03T03:54:54.993Z,1.10
2023-04-03T03:57:22.117Z,0.98
2023-04-03T03:59:49.894Z,0.80
2023-04-03T04:02:18.883Z,1.25
2023-04-03T04:04:46.836Z,1.08
2023-04-03T04:07:14.098Z,1.02
2023-04-03T04:09:41.120Z,0.70
2023-04-03T04:12:09.520Z,1.02
2023-04-03T04:14:37.363Z,1.10
2023-04-03T04:17:05.453Z,1.17
2023-04-03T04:19:32.550Z,1.00
2023-04-03T04:21:59.776Z,1.10
2023-04-03T04:24:26.889Z,1.27
2023-04-03T04:26:55.391Z,0.90
2023-04-03T04:29:23.100Z,0.82
2023-04-03T04:31:51.776Z,0.80
2023-04-03T04:34:18.813Z,1.02
2023-04-03T04:36:48.213Z,1.23
2023-04-03T04:39:15.353Z,1.00
2023-04-03T04:41:42.354Z,1.05
2023-04-03T04:44:10.004Z,0.80
2023-04-03T04:46:37.533Z,0.90
2023-04-03T04:49:06.516Z,0.80
2023-04-03T04:51:40.926Z,1.00
2023-04-03T04:54:16.655Z,0.68
2023-04-03T04:56:44.264Z,1.27
2023-04-03T04:59:11.490Z,1.05
2023-04-03T05:01:38.600Z,0.95
2023-04-03T05:04:10.446Z,1.08
2023-04-03T05:06:38.176Z,1.10
2023-04-03T05:09:09.767Z,1.00
2023-04-03T05:11:37.348Z,1.10
2023-04-03T05:14:07.409Z,0.90
2023-04-03T05:16:35.798Z,0.93
2023-04-03T05:19:02.887Z,1.02
2023-04-03T05:21:33.331Z,0.70
2023-04-03T05:24:04.581Z,0.80
2023-04-03T05:26:34.085Z,1.05
2023-04-03T05:29:02.420Z,1.13
2023-04-03T05:31:30.542Z,0.90
2023-04-03T05:33:59.106Z,0.90
2023-04-03T05:36:28.140Z,0.90
2023-04-03T05:39:00.128Z,0.80
2023-04-03T05:41:27.260Z,1.08
2023-04-03T05:43:54.411Z,1.05
2023-04-03T05:46:23.542Z,1.20
2023-04-03T05:48:54.954Z,0.90
2023-04-03T05:51:30.823Z,1.02
2023-04-03T05:54:25.505Z,0.85
2023-04-03T05:56:56.816Z,0.98
2023-04-03T05:59:24.818Z,1.23
2023-04-03T06:01:54.231Z,1.10
2023-04-03T06:04:22.098Z,0.85
2023-04-03T06:06:54.272Z,0.95
2023-04-03T06:09:23.881Z,0.85
2023-04-03T06:11:51.204Z,0.98
2023-04-03T06:14:18.466Z,1.50
2023-04-03T06:16:46.124Z,1.35
2023-04-03T06:19:13.756Z,1.02
2023-04-03T06:21:46.042Z,1.35
2023-04-03T06:24:17.378Z,1.35
2023-04-03T06:26:44.975Z,1.40
2023-04-03T06:29:12.058Z,1.30
2023-04-03T06:31:39.031Z,1.40
2023-04-03T06:34:09.378Z,1.30
2023-04-03T06:36:36.884Z,1.52
2023-04-03T06:39:04.458Z,1.45
2023-04-03T06:41:31.951Z,1.70
2023-04-03T06:43:59.432Z,1.65
2023-04-03T06:46:27.995Z,1.63
2023-04-03T06:48:55.148Z,1.60
2023-04-03T06:51:31.432Z,1.80
2023-04-03T06:54:00.533Z,1.65
2023-04-03T06:56:28.151Z,1.65
2023-04-03T06:58:58.343Z,1.27
2023-04-03T07:01:28.838Z,1.47
2023-04-03T07:03:57.096Z,1.60
2023-04-03T07:06:24.186Z,1.63
2023-04-03T07:08:51.355Z,1.75
2023-04-03T07:11:18.480Z,1.40
2023-04-03T07:13:46.068Z,1.60
2023-04-03T07:16:13.470Z,2.15
2023-04-03T07:18:40.888Z,1.52
2023-04-03T07:21:08.196Z,1.52
2023-04-03T07:23:35.171Z,1.90
2023-04-03T07:26:02.214Z,1.50
2023-04-03T07:28:30.698Z,1.40
2023-04-03T07:31:09.483Z,1.58
2023-04-03T07:33:38.107Z,1.40
2023-04-03T07:36:07.786Z,1.60
2023-04-03T07:38:36.970Z,1.40
2023-04-03T07:41:05.475Z,1.20
2023-04-03T07:43:32.888Z,1.50
2023-04-03T07:46:00.037Z,1.30
2023-04-03T07:48:27.663Z,1.25
2023-04-03T07:50:54.685Z,1.23
2023-04-03T07:53:21.669Z,1.02
2023-04-03T07:55:52.482Z,1.33
2023-04-03T07:58:19.870Z,1.05
2023-04-03T08:00:47.534Z,1.15
2023-04-03T08:03:17.544Z,1.38
2023-04-03T08:05:50.604Z,1.10
2023-04-03T08:08:23.196Z,1.20
2023-04-03T08:10:55.084Z,1.55
2023-04-03T08:13:23.169Z,1.70
2023-04-03T08:15:50.415Z,1.30
2023-04-03T08:18:17.830Z,1.15
2023-04-03T08:20:45.013Z,1.10
2023-04-03T08:23:12.515Z,1.20
2023-04-03T08:25:41.854Z,0.80
2023-04-03T08:28:10.452Z,1.75
2023-04-03T08:30:41.024Z,0.88
2023-04-03T08:33:08.248Z,0.68
2023-04-03T08:35:43.531Z,1.00
2023-04-03T08:38:11.524Z,1.05
2023-04-03T08:40:40.504Z,0.80
2023-04-03T08:43:34.204Z,0.77
2023-04-03T08:46:03.516Z,1.13
2023-04-03T08:48:43.304Z,0.73
2023-04-03T08:51:17.421Z,1.00
2023-04-03T08:54:15.985Z,0.80
2023-04-03T08:56:43.148Z,1.02
2023-04-03T08:59:23.629Z,0.80
2023-04-03T09:01:52.395Z,0.90
2023-04-03T09:04:20.122Z,0.90
2023-04-03T09:06:53.838Z,0.70
2023-04-03T09:09:42.337Z,1.10
2023-04-03T09:12:37.571Z,0.85
2023-04-03T09:15:35.665Z,0.90
2023-04-03T09:21:13.650Z,0.55
2023-04-03T09:23:50.693Z,0.82
2023-04-03T09:26:51.428Z,1.00
2023-04-03T09:29:25.166Z,0.70
2023-04-03T09:32:00.776Z,0.88
2023-04-03T09:34:36.104Z,0.88
2023-04-03T09:37:07.108Z,0.80
2023-04-03T09:42:26.092Z,0.60
2023-04-03T09:45:22.809Z,0.98
2023-04-03T09:47:49.838Z,0.80
2023-04-03T09:50:24.127Z,0.73
2023-04-03T09:52:53.145Z,0.90
2023-04-03T09:55:29.693Z,0.77
2023-04-03T09:58:23.167Z,0.80
2023-04-03T10:00:57.719Z,0.60
2023-04-03T10:03:37.459Z,0.68
2023-04-03T10:06:21.769Z,0.60
2023-04-03T10:09:01.981Z,0.80
2023-04-03T10:11:29.051Z,0.60
2023-04-03T10:14:03.950Z,0.98
2023-04-03T10:16:42.872Z,0.93
2023-04-03T10:19:37.703Z,0.93
2023-04-03T10:22:35.049Z,0.80
2023-04-03T10:25:05.454Z,0.63
2023-04-03T10:27:45.891Z,0.82
2023-04-03T10:30:55.337Z,0.60
2023-04-03T10:33:57.913Z,0.60
2023-04-03T10:36:49.871Z,0.60
2023-04-03T10:39:54.220Z,0.80
2023-04-03T10:42:50.430Z,0.90
2023-04-03T10:45:47.493Z,0.60
2023-04-03T10:48:44.826Z,0.57
2023-04-03T10:51:21.821Z,0.60
2023-04-03T10:54:08.219Z,0.70
2023-04-03T10:57:04.616Z,0.95
2023-04-03T11:00:19.380Z,0.70
2023-04-03T11:02:58.615Z,0.50
2023-04-03T11:05:51.429Z,0.90
2023-04-03T11:08:57.599Z,0.77
2023-04-03T11:11:45.469Z,0.73
2023-04-03T11:14:27.598Z,0.63
2023-04-03T11:17:23.771Z,0.75
2023-04-03T11:20:03.857Z,0.68
2023-04-03T11:22:54.126Z,0.73
2023-04-03T11:25:26.834Z,0.80
2023-04-03T11:28:07.304Z,0.73
2023-04-03T11:30:49.256Z,0.95
2023-04-03T11:33:50.285Z,0.70
2023-04-03T11:36:34.830Z,0.93
2023-04-03T11:39:24.632Z,0.70
2023-04-03T11:41:57.589Z,0.60
2023-04-03T11:44:38.415Z,0.60
2023-04-03T11:47:09.145Z,0.80
2023-04-03T11:50:00.878Z,0.88
2023-04-03T11:52:59.252Z,0.85
2023-04-03T11:55:31.682Z,0.80
2023-04-03T11:57:58.551Z,0.70
2023-04-03T12:00:53.530Z,0.85
2023-04-03T12:03:26.498Z,0.65
2023-04-03T12:06:18.745Z,0.80
2023-04-03T12:08:54.014Z,0.88
2023-04-03T12:11:36.400Z,0.98
2023-04-03T12:14:06.055Z,0.80
2023-04-03T12:16:39.082Z,0.90
2023-04-03T12:22:16.802Z,0.90
2023-04-03T12:24:49.326Z,1.15
2023-04-03T12:27:52.785Z,0.90
2023-04-03T12:30:28.624Z,0.80
2023-04-03T12:33:19.204Z,0.60
2023-04-03T12:36:15.878Z,0.70
2023-04-03T12:39:14.410Z,0.80
2023-04-03T12:41:53.092Z,0.70
2023-04-03T12:44:48.032Z,0.70
2023-04-03T12:47:37.150Z,0.80
2023-04-03T12:50:16.976Z,0.90
2023-04-03T12:52:52.141Z,1.02
2023-04-03T12:55:21.949Z,0.95
2023-04-03T12:57:49.187Z,0.70
2023-04-03T13:00:39.732Z,0.98
2023-04-03T13:03:20.916Z,1.00
2023-04-03T13:05:47.959Z,0.90
2023-04-03T13:08:23.274Z,0.85
2023-04-03T13:11:12.849Z,0.90
2023-04-03T13:13:40.416Z,0.88
2023-04-03T13:16:14.658Z,1.02
2023-04-03T13:18:41.921Z,1.13
2023-04-03T13:21:19.162Z,1.10
2023-04-03T13:23:55.200Z,0.93
2023-04-03T13:26:33.548Z,1.17
2023-04-03T13:29:05.479Z,0.80
2023-04-03T13:31:37.856Z,1.00
2023-04-03T13:34:10.646Z,0.80
2023-04-03T13:36:46.736Z,1.08
2023-04-03T13:39:19.105Z,1.17
2023-04-03T13:42:02.612Z,0.77
2023-04-03T13:44:36.280Z,0.73
2023-04-03T13:47:12.266Z,1.20
2023-04-03T13:49:47.439Z,0.68
2023-04-03T13:52:31.410Z,0.95
2023-04-03T13:55:26.950Z,0.70
2023-04-03T13:58:20.611Z,0.70
2023-04-03T14:00:54.399Z,0.88
2023-04-03T14:03:34.257Z,0.80
2023-04-03T14:06:02.526Z,0.90
2023-04-03T14:08:40.099Z,0.68
2023-04-03T14:11:16.318Z,0.82
2023-04-03T14:13:44.465Z,0.80
2023-04-03T14:16:18.920Z,0.88
2023-04-03T14:18:47.946Z,0.82
2023-04-03T14:21:17.848Z,1.13
2023-04-03T14:23:46.309Z,0.90
2023-04-03T14:26:18.596Z,0.93
2023-04-03T14:28:48.146Z,0.80
2023-04-03T14:31:16.904Z,1.00
2023-04-03T14:33:44.107Z,0.95
2023-04-03T14:36:15.034Z,0.90
2023-04-03T14:41:16.612Z,1.00
2023-04-03T14:43:45.878Z,0.80
2023-04-03T14:46:38.676Z,0.95
2023-04-03T14:49:18.735Z,0.70
2023-04-03T14:51:45.903Z,0.75
2023-04-03T14:54:26.143Z,0.82
2023-04-03T14:56:54.929Z,0.75
2023-04-03T14:59:22.804Z,0.68
2023-04-03T15:01:50.246Z,1.00
2023-04-03T15:04:21.531Z,1.08
2023-04-03T15:06:50.289Z,1.00
2023-04-03T15:09:28.303Z,1.02
2023-04-03T15:11:56.108Z,1.20
2023-04-03T15:14:35.476Z,1.10
2023-04-03T15:17:06.708Z,1.00
2023-04-03T15:19:39.552Z,1.10
2023-04-03T15:22:07.389Z,0.93
2023-04-03T15:24:34.369Z,0.95
2023-04-03T15:27:02.293Z,0.90
2023-04-03T15:29:29.304Z,0.70
2023-04-03T15:31:56.634Z,0.90
2023-04-03T15:34:23.624Z,0.77
2023-04-03T15:36:53.450Z,0.95
2023-04-03T15:39:21.836Z,0.90
2023-04-03T15:41:48.878Z,1.00
2023-04-03T15:44:18.455Z,1.00
2023-04-03T15:46:47.824Z,0.95
2023-04-03T15:49:14.975Z,0.80
2023-04-03T15:51:42.591Z,0.73
2023-04-03T15:54:09.501Z,0.90
2023-04-03T15:56:36.432Z,1.10
2023-04-03T15:59:03.376Z,1.02
2023-04-03T16:01:30.658Z,0.82
2023-04-03T16:03:57.820Z,0.90
2023-04-03T16:06:26.097Z,1.05
2023-04-03T16:08:57.789Z,0.90
2023-04-03T16:11:27.072Z,1.00
2023-04-03T16:13:55.775Z,0.60
2023-04-03T16:16:24.928Z,0.60
2023-04-03T16:18:52.234Z,0.57
2023-04-03T16:21:20.555Z,0.57
2023-04-03T16:23:47.585Z,0.75
2023-04-03T16:26:15.277Z,1.05
2023-04-03T16:28:42.248Z,0.70
2023-04-03T16:31:10.390Z,0.90
2023-04-03T16:33:37.738Z,0.75
2023-04-03T16:36:06.025Z,0.60
2023-04-03T16:38:33.116Z,0.88
2023-04-03T16:41:03.426Z,0.68
2023-04-03T16:43:30.619Z,0.50
2023-04-03T16:45:57.672Z,0.68
2023-04-03T16:48:24.667Z,0.40
2023-04-03T16:50:54.195Z,0.70
2023-04-03T16:53:25.982Z,0.50
2023-04-03T16:55:53.651Z,0.80
2023-04-03T16:58:23.379Z,0.43
2023-04-03T17:03:18.814Z,0.55
2023-04-03T17:05:48.857Z,0.68
2023-04-03T17:08:18.980Z,1.00
2023-04-03T17:10:46.198Z,0.68
2023-04-03T17:13:13.251Z,0.70
2023-04-03T17:15:40.630Z,0.70
2023-04-03T17:18:08.505Z,0.73
2023-04-03T17:20:37.034Z,0.60
2023-04-03T17:23:04.406Z,0.70
2023-04-03T17:25:31.473Z,0.65
2023-04-03T17:27:58.520Z,0.55
2023-04-03T17:30:25.492Z,0.85
2023-04-03T17:32:52.527Z,0.75
2023-04-03T17:35:19.600Z,0.82
2023-04-03T17:37:50.576Z,0.75
2023-04-03T17:42:46.019Z,0.50
2023-04-03T17:45:13.170Z,0.63
2023-04-03T17:47:40.267Z,0.68
2023-04-03T17:50:07.986Z,0.80
2023-04-03T17:52:34.971Z,0.80
2023-04-03T17:55:01.972Z,0.80
2023-04-03T17:57:30.715Z,0.70
2023-04-03T17:59:57.929Z,0.60
2023-04-03T18:02:25.039Z,0.68
2023-04-03T18:04:53.394Z,1.00
2023-04-03T18:07:20.686Z,0.70
2023-04-03T18:09:49.184Z,0.70
2023-04-03T18:12:16.225Z,0.90
2023-04-03T18:14:45.009Z,1.08
2023-04-03T18:17:12.007Z,0.90
2023-04-03T18:19:39.079Z,1.00
2023-04-03T18:22:15.211Z,0.65
2023-04-03T18:24:43.614Z,0.68
2023-04-03T18:27:18.487Z,0.60
2023-04-03T18:29:50.576Z,0.90
2023-04-03T18:32:20.498Z,0.80
2023-04-03T18:34:47.866Z,0.95
2023-04-03T18:37:15.921Z,0.98
2023-04-03T18:39:43.287Z,1.00
2023-04-03T18:42:16.120Z,1.02
2023-04-03T18:44:47.747Z,0.93
2023-04-03T18:47:15.063Z,0.90
2023-04-03T18:49:42.766Z,1.05
2023-04-03T18:52:11.929Z,0.90
2023-04-03T18:54:39.197Z,0.70
2023-04-03T18:57:06.255Z,1.00
2023-04-03T18:59:33.213Z,0.73
2023-04-03T19:02:00.679Z,1.20
2023-04-03T19:04:29.247Z,1.10
2023-04-03T19:06:56.335Z,0.80
2023-04-03T19:09:24.857Z,0.70
2023-04-03T19:11:51.891Z,0.90
2023-04-03T19:14:18.817Z,0.75
2023-04-03T19:16:46.394Z,0.70
2023-04-03T19:19:13.641Z,0.75
2023-04-03T19:21:41.842Z,0.93
2023-04-03T19:24:11.379Z,0.90
2023-04-03T19:26:39.849Z,0.98
2023-04-03T19:29:07.169Z,0.82
2023-04-03T19:31:36.720Z,0.80
2023-04-03T19:34:05.511Z,0.75
2023-04-03T19:36:34.254Z,0.82
2023-04-03T19:39:01.655Z,0.88
2023-04-03T19:41:31.520Z,1.00
2023-04-03T19:43:58.597Z,0.80
2023-04-03T19:46:28.512Z,0.93
2023-04-03T19:48:56.082Z,0.90
2023-04-03T19:51:23.171Z,1.00
2023-04-03T19:53:51.082Z,0.93
2023-04-03T19:56:18.315Z,0.70
2023-04-03T19:58:45.743Z,0.98
2023-04-03T20:01:12.955Z,0.93
2023-04-03T20:03:40.120Z,0.70
2023-04-03T20:06:07.148Z,0.77
2023-04-03T20:08:35.265Z,0.77
2023-04-03T20:11:02.259Z,0.70
2023-04-03T20:13:29.256Z,0.90
2023-04-03T20:15:56.673Z,0.65
2023-04-03T20:18:24.052Z,0.68
2023-04-03T20:20:57.548Z,0.98
2023-04-03T20:23:25.877Z,0.70
2023-04-03T20:26:06.533Z,0.70
2023-04-03T20:28:37.921Z,0.85
2023-04-03T20:31:06.588Z,0.75
2023-04-03T20:33:33.878Z,0.63
2023-04-03T20:36:01.946Z,0.65
2023-04-03T20:38:29.084Z,0.60
2023-04-03T20:40:56.155Z,0.77
2023-04-03T20:43:23.613Z,0.70
2023-04-03T20:45:51.042Z,0.60
2023-04-03T20:48:18.636Z,1.00
2023-04-03T20:50:46.659Z,0.93
2023-04-03T20:53:17.785Z,0.77
2023-04-03T20:56:01.173Z,0.90
2023-04-03T20:58:30.202Z,0.85
2023-04-03T21:00:57.543Z,1.02
2023-04-03T21:03:26.691Z,0.65
2023-04-03T21:06:00.244Z,0.57
2023-04-03T21:09:23.891Z,0.80
2023-04-03T21:12:46.961Z,0.77
2023-04-03T21:15:48.815Z,0.90
2023-04-03T21:18:51.069Z,0.70
2023-04-03T21:21:24.479Z,1.17
2023-04-03T21:23:54.286Z,0.90
2023-04-03T21:26:22.622Z,0.70
2023-04-03T21:28:53.921Z,0.55
2023-04-03T21:31:22.260Z,1.00
2023-04-03T21:33:50.208Z,0.90
2023-04-03T21:36:17.391Z,0.80
2023-04-03T21:38:45.903Z,0.93
2023-04-03T21:41:12.848Z,0.50
2023-04-03T21:43:39.818Z,0.98
2023-04-03T21:46:06.867Z,0.85
2023-04-03T21:48:36.063Z,0.85
2023-04-03T21:51:04.963Z,0.70
2023-04-03T21:53:32.372Z,1.00
2023-04-03T21:56:00.593Z,0.70
2023-04-03T21:58:32.328Z,1.05
2023-04-03T22:01:10.716Z,0.98
2023-04-03T22:03:38.865Z,0.80
2023-04-03T22:06:06.074Z,0.90
2023-04-03T22:08:33.643Z,0.70
2023-04-03T22:11:07.011Z,0.85
2023-04-03T22:13:35.606Z,1.00
2023-04-03T22:16:02.754Z,0.80
2023-04-03T22:18:30.256Z,0.70
2023-04-03T22:20:57.332Z,0.55
2023-04-03T22:23:24.747Z,0.90
2023-04-03T22:26:10.590Z,1.00
2023-04-03T22:28:47.784Z,1.00
2023-04-03T22:31:16.206Z,1.00
2023-04-03T22:33:45.392Z,0.70
2023-04-03T22:36:13.591Z,1.15
2023-04-03T22:38:44.803Z,0.77
2023-04-03T22:43:39.727Z,0.70
2023-04-03T22:46:09.200Z,0.90
2023-04-03T22:48:38.487Z,0.80
2023-04-03T22:51:09.255Z,1.20
2023-04-03T22:53:37.153Z,0.93
2023-04-03T22:56:08.649Z,0.65
2023-04-03T22:58:35.686Z,0.90
2023-04-03T23:01:11.502Z,1.05
2023-04-03T23:03:41.908Z,0.90
2023-04-03T23:06:10.218Z,0.97
2023-04-03T23:08:41.800Z,0.85
2023-04-03T23:11:12.038Z,0.93
2023-04-03T23:13:39.044Z,0.80
2023-04-03T23:16:06.741Z,0.95
2023-04-03T23:18:33.825Z,0.77
2023-04-03T23:21:05.248Z,1.00
2023-04-03T23:23:32.577Z,0.70
2023-04-03T23:26:01.898Z,1.30
2023-04-03T23:28:29.791Z,0.93
2023-04-03T23:31:02.204Z,1.10
2023-04-03T23:33:31.233Z,0.73
2023-04-03T23:36:01.088Z,0.95
2023-04-03T23:38:28.227Z,0.90
2023-04-03T23:40:55.770Z,0.95
2023-04-03T23:43:22.776Z,0.80
2023-04-03T23:45:49.752Z,0.93
2023-04-03T23:48:16.943Z,0.93
2023-04-03T23:50:44.066Z,1.27
2023-04-03T23:53:13.336Z,1.02
2023-04-03T23:55:40.992Z,0.73
2023-04-03T23:58:07.944Z,0.85
